God — WDH3056 — position and weather

sailwx.info

Track history (hours):
 
Tides and Currents Weather Stations Pressure Air Temp Water Temp Dewpoint Dewpoint Depression Visibility Wind Speed Wind Dir Waves Ship Positions

God

Owner: Quality tug services LLC, broussard, LA. More information available from US FCC via Universal Licensing System and Coast Guard Vessel Documentation Center.

Last reported at 2018-Apr-20 19:04 UTC. Time now 2018-May-27 03:31 UTC.
Position N 29°56' W 093°09'.
Warning: this ship's position is 36 days out of date.

Length 18 m; draft 3 m.

Type: Towing. MMSI: 367603820.

Date/timePositionNaut miles runAvg speedWind from/ knotsBaromVisibWave heightAir tempDewpointWater temp
2018-Apr-20 19:04N 29°56' W 093°09'1 4.5
2018-Apr-20 18:55N 29°56' W 093°09'2 4.5
2018-Apr-20 18:30N 29°57' W 093°11'2 4.5
2018-Apr-20 18:01N 29°59' W 093°13'2 4.0
2018-Apr-20 17:31N 30°01' W 093°14'2 3.9
2018-Apr-20 17:01N 30°02' W 093°15'2 4.0
2018-Apr-20 16:30N 30°04' W 093°16'2 3.5
2018-Apr-20 16:00N 30°05' W 093°18'1 2.4
2018-Apr-20 15:30N 30°06' W 093°19'1 1.3
2018-Apr-20 15:00N 30°06' W 093°19'0 0.2
2018-Apr-20 14:28N 30°06' W 093°19'0 0.0
2018-Apr-20 13:58N 30°06' W 093°19'1 2.3
2018-Apr-20 13:30N 30°06' W 093°18'0 0.4
2018-Apr-20 13:00N 30°06' W 093°19'1 1.8
2018-Apr-20 12:30N 30°06' W 093°19'0 0.0
2018-Apr-20 12:01N 30°06' W 093°19'0 0.0
2018-Apr-20 11:30N 30°06' W 093°19'0 0.0
2018-Apr-20 11:01N 30°06' W 093°19'0 0.0
2018-Apr-20 10:31N 30°06' W 093°19'0 0.0
2018-Apr-20 10:01N 30°06' W 093°19'0 0.0
2018-Apr-20 09:31N 30°06' W 093°19'0 0.0
2018-Apr-20 09:01N 30°06' W 093°19'0 0.0
2018-Apr-20 08:30N 30°06' W 093°19'0 0.0
2018-Apr-20 08:00N 30°06' W 093°19'0 0.0
2018-Apr-20 07:30N 30°06' W 093°19'0 0.0
2018-Apr-20 07:00N 30°06' W 093°19'0 0.0
2018-Apr-20 06:31N 30°06' W 093°19'0 0.0
2018-Apr-20 06:00N 30°06' W 093°19'0 0.0
2018-Apr-20 05:30N 30°06' W 093°19'0 0.0
2018-Apr-20 05:00N 30°06' W 093°19'0 0.0
2018-Apr-20 04:30N 30°06' W 093°19'0 0.0
2018-Apr-20 04:01N 30°06' W 093°19'0 0.0
2018-Apr-20 03:31N 30°06' W 093°19'0 0.0
2018-Apr-20 03:00N 30°06' W 093°19'0 0.0
2018-Apr-20 02:30N 30°06' W 093°19'0 0.0
2018-Apr-20 02:01N 30°06' W 093°19'0 0.0
2018-Apr-20 01:29N 30°06' W 093°19'0 0.0
2018-Apr-20 01:00N 30°06' W 093°19'0 0.0
2018-Apr-20 00:31N 30°06' W 093°19'0 0.0
2018-Apr-20 00:00N 30°06' W 093°19'0 0.0
2018-Apr-19 23:31N 30°06' W 093°19'2 3.1
2018-Apr-19 23:01N 30°05' W 093°20'1 2.0
2018-Apr-19 22:29N 30°04' W 093°21'0 0.0
2018-Apr-19 21:56N 30°04' W 093°21'0 0.0
2018-Apr-19 21:30N 30°04' W 093°21'1 2.3
2018-Apr-19 21:00N 30°05' W 093°20'2 3.1
2018-Apr-19 20:30N 30°06' W 093°19'0 0.4
2018-Apr-19 20:01N 30°06' W 093°19'0 0.0
2018-Apr-19 19:31N 30°06' W 093°19'0 0.0
2018-Apr-19 19:01N 30°06' W 093°19'1 2.3
2018-Apr-19 18:31N 30°07' W 093°20'3 5.0
2018-Apr-19 18:01N 30°09' W 093°20'3 5.0
2018-Apr-19 17:30N 30°11' W 093°18'3 5.0
2018-Apr-19 16:58N 30°13' W 093°16'1 2.1
2018-Apr-19 16:31N 30°13' W 093°15'0 0.0
2018-Apr-19 16:00N 30°13' W 093°15'0 0.3
2018-Apr-19 15:30N 30°14' W 093°15'0 0.2
2018-Apr-19 15:01N 30°14' W 093°15'0 0.0
2018-Apr-19 14:31N 30°14' W 093°15'1 2.3
2018-Apr-19 14:00N 30°12' W 093°16'4 7.7
2018-Apr-19 13:31N 30°10' W 093°19'0 0.9
2018-Apr-19 13:01N 30°10' W 093°19'0 0.3
2018-Apr-19 12:31N 30°09' W 093°20'3 6.7
2018-Apr-19 12:00N 30°06' W 093°20'0 0.9
2018-Apr-19 11:30N 30°06' W 093°19'0 0.0
2018-Apr-19 11:01N 30°06' W 093°19'0 0.0
2018-Apr-19 10:30N 30°06' W 093°19'0 0.0
2018-Apr-19 10:00N 30°06' W 093°19'0 0.0
2018-Apr-19 09:31N 30°06' W 093°19'0 0.0
2018-Apr-19 09:00N 30°06' W 093°19'0 0.0
2018-Apr-19 08:30N 30°06' W 093°19'0 0.0
2018-Apr-19 08:00N 30°06' W 093°19'0 0.0
2018-Apr-19 07:31N 30°06' W 093°19'0 0.0
2018-Apr-19 07:01N 30°06' W 093°19'0 0.0
2018-Apr-19 06:30N 30°06' W 093°19'0 0.0
2018-Apr-19 06:01N 30°06' W 093°19'0 0.0
2018-Apr-19 05:30N 30°06' W 093°19'0 0.0
2018-Apr-19 05:00N 30°06' W 093°19'0 0.0
2018-Apr-19 04:31N 30°06' W 093°19'0 0.0
2018-Apr-19 04:01N 30°06' W 093°19'0 0.0
2018-Apr-19 03:30N 30°06' W 093°19'0 0.0
2018-Apr-19 03:01N 30°06' W 093°19'0 0.0
2018-Apr-19 02:31N 30°06' W 093°19'0 0.0
2018-Apr-19 02:00N 30°06' W 093°19'0 0.0
2018-Apr-19 01:30N 30°06' W 093°19'0 0.0
2018-Apr-19 01:00N 30°06' W 093°19'0 0.0
2018-Apr-19 00:31N 30°06' W 093°19'0 0.0
2018-Apr-19 00:00N 30°06' W 093°19'0 0.0
2018-Apr-18 23:30N 30°06' W 093°19'0 0.0
2018-Apr-18 23:00N 30°06' W 093°19'0 0.0
2018-Apr-18 22:30N 30°06' W 093°19'2 3.2
2018-Apr-18 22:01N 30°04' W 093°20'0 0.2
2018-Apr-18 21:30N 30°04' W 093°20'2 3.2
2018-Apr-18 20:59N 30°06' W 093°19'0 0.8
2018-Apr-18 20:30N 30°06' W 093°19'1 1.4
2018-Apr-18 20:01N 30°06' W 093°18'1 2.1
2018-Apr-18 19:30N 30°06' W 093°19'0 0.5
2018-Apr-18 19:01N 30°06' W 093°19'1 1.7
2018-Apr-18 18:30N 30°06' W 093°18'1 2.1
2018-Apr-18 18:00N 30°06' W 093°19'1 2.1
2018-Apr-18 17:30N 30°06' W 093°18'0 0.3
2018-Apr-18 17:00N 30°06' W 093°18'1 1.9
2018-Apr-18 16:31N 30°06' W 093°19'0 0.0
2018-Apr-18 16:01N 30°06' W 093°19'0 0.0
2018-Apr-18 15:30N 30°06' W 093°19'0 0.0
2018-Apr-18 15:01N 30°06' W 093°19'0 0.0
2018-Apr-18 14:30N 30°06' W 093°19'0 0.0
2018-Apr-18 14:00N 30°06' W 093°19'0 0.0
2018-Apr-18 13:30N 30°06' W 093°19'0 0.0
2018-Apr-18 13:00N 30°06' W 093°19'0 0.0
2018-Apr-18 12:31N 30°06' W 093°19'0 0.0
2018-Apr-18 12:00N 30°06' W 093°19'0 0.0
2018-Apr-18 11:30N 30°06' W 093°19'0 0.0
2018-Apr-18 11:01N 30°06' W 093°19'0 0.0
2018-Apr-18 10:31N 30°06' W 093°19'0 0.0
2018-Apr-18 10:01N 30°06' W 093°19'0 0.0
2018-Apr-18 09:31N 30°06' W 093°19'0 0.0
2018-Apr-18 09:00N 30°06' W 093°19'0 0.0
2018-Apr-18 08:31N 30°06' W 093°19'0 0.0
2018-Apr-18 08:00N 30°06' W 093°19'0 0.0
2018-Apr-18 07:31N 30°06' W 093°19'0 0.0
2018-Apr-18 07:00N 30°06' W 093°19'0 0.0
2018-Apr-18 06:30N 30°06' W 093°19'0 0.0
2018-Apr-18 06:01N 30°06' W 093°19'0 0.0
2018-Apr-18 05:31N 30°06' W 093°19'0 0.0
2018-Apr-18 05:00N 30°06' W 093°19'0 0.0
2018-Apr-18 04:30N 30°06' W 093°19'0 0.0
2018-Apr-18 04:01N 30°06' W 093°19'0 0.0
2018-Apr-18 03:30N 30°06' W 093°19'0 0.0
2018-Apr-18 03:01N 30°06' W 093°19'0 0.0
2018-Apr-18 02:30N 30°06' W 093°19'0 0.0
2018-Apr-18 02:00N 30°06' W 093°19'0 0.0
2018-Apr-18 01:31N 30°06' W 093°19'0 0.0
2018-Apr-18 01:01N 30°06' W 093°19'0 0.0
2018-Apr-18 00:31N 30°06' W 093°19'0 0.0
2018-Apr-18 00:01N 30°06' W 093°19'0 0.0
2018-Apr-17 23:31N 30°06' W 093°19'0 0.0
2018-Apr-17 23:01N 30°06' W 093°19'0 0.0
2018-Apr-17 22:31N 30°06' W 093°19'0 0.0
2018-Apr-17 22:01N 30°06' W 093°19'0 0.0
2018-Apr-17 21:31N 30°06' W 093°19'0 0.0
2018-Apr-17 21:01N 30°06' W 093°19'0 0.0
2018-Apr-17 20:30N 30°06' W 093°19'1 1.0
2018-Apr-17 20:01N 30°05' W 093°20'2 4.2
2018-Apr-17 19:31N 30°04' W 093°21'2 4.0
2018-Apr-17 19:01N 30°05' W 093°20'1 1.3
2018-Apr-17 18:31N 30°06' W 093°19'2 3.5
2018-Apr-17 18:01N 30°07' W 093°20'3 6.7
2018-Apr-17 17:31N 30°11' W 093°19'3 6.6
2018-Apr-17 17:00N 30°13' W 093°16'1 2.4
2018-Apr-17 16:31N 30°14' W 093°15'0 0.1
2018-Apr-17 16:01N 30°14' W 093°15'1 2.4
2018-Apr-17 15:31N 30°12' W 093°16'3 5.9
2018-Apr-17 15:00N 30°11' W 093°19'3 5.6
2018-Apr-17 14:31N 30°08' W 093°20'3 5.9
2018-Apr-17 14:00N 30°05' W 093°19'0 0.1
2018-Apr-17 13:31N 30°05' W 093°19'1 2.2
2018-Apr-17 13:00N 30°04' W 093°20'0 0.0
2018-Apr-17 12:30N 30°04' W 093°20'0 0.0
2018-Apr-17 12:01N 30°04' W 093°20'0 0.0
2018-Apr-17 11:30N 30°04' W 093°20'0 0.0
2018-Apr-17 11:01N 30°04' W 093°20'0 0.0
2018-Apr-17 10:31N 30°04' W 093°20'0 0.0
2018-Apr-17 10:00N 30°04' W 093°20'0 0.0
2018-Apr-17 09:31N 30°04' W 093°20'0 0.0
2018-Apr-17 09:01N 30°04' W 093°20'0 0.0
2018-Apr-17 08:30N 30°04' W 093°20'0 0.0
2018-Apr-17 08:00N 30°04' W 093°20'0 0.0
2018-Apr-17 07:31N 30°04' W 093°20'0 0.0
2018-Apr-17 07:00N 30°04' W 093°20'0 0.0
2018-Apr-17 06:31N 30°04' W 093°20'0 0.0
2018-Apr-17 06:01N 30°04' W 093°20'0 0.0
2018-Apr-17 05:31N 30°04' W 093°20'0 0.0
2018-Apr-17 04:59N 30°04' W 093°20'0 0.0
2018-Apr-17 04:31N 30°04' W 093°20'0 0.0
2018-Apr-17 04:00N 30°04' W 093°20'0 0.0
2018-Apr-17 03:31N 30°04' W 093°20'0 0.0
2018-Apr-17 03:00N 30°04' W 093°20'0 0.0
2018-Apr-17 02:31N 30°04' W 093°20'0 0.0
2018-Apr-17 02:01N 30°04' W 093°20'0 0.0
2018-Apr-17 01:31N 30°04' W 093°20'0 0.0
2018-Apr-17 01:00N 30°04' W 093°20'0 0.1
2018-Apr-17 00:30N 30°04' W 093°20'0 0.1
2018-Apr-17 00:00N 30°04' W 093°20'0 0.0
2018-Apr-16 23:30N 30°04' W 093°20'0 0.0
2018-Apr-16 23:00N 30°04' W 093°20'0 0.0
2018-Apr-16 22:30N 30°04' W 093°20'0 0.0
2018-Apr-16 22:00N 30°04' W 093°20'0 0.0
2018-Apr-16 21:31N 30°04' W 093°20'0 0.0
2018-Apr-16 21:00N 30°04' W 093°20'0 0.0
2018-Apr-16 20:30N 30°04' W 093°20'0 0.0
2018-Apr-16 20:00N 30°04' W 093°20'0 0.0
2018-Apr-16 19:31N 30°04' W 093°20'0 0.0
2018-Apr-16 19:00N 30°04' W 093°20'0 0.0
2018-Apr-16 18:31N 30°04' W 093°20'0 0.0
2018-Apr-16 18:00N 30°04' W 093°20'0 0.0
2018-Apr-16 17:30N 30°04' W 093°20'0 0.1
2018-Apr-16 17:01N 30°04' W 093°20'0 0.0
2018-Apr-16 16:31N 30°04' W 093°20'0 0.0
2018-Apr-16 16:00N 30°04' W 093°20'0 0.0
2018-Apr-16 15:31N 30°04' W 093°20'0 0.0
2018-Apr-16 15:01N 30°04' W 093°20'0 0.0
2018-Apr-16 14:30N 30°04' W 093°20'0 0.0
2018-Apr-16 14:01N 30°04' W 093°20'0 0.8
2018-Apr-16 13:31N 30°05' W 093°20'0 0.8
2018-Apr-16 13:01N 30°05' W 093°20'0 1.0
2018-Apr-16 12:30N 30°06' W 093°19'1 2.4
2018-Apr-16 11:59N 30°04' W 093°20'0 0.0
2018-Apr-16 11:30N 30°04' W 093°20'0 0.0
2018-Apr-16 11:00N 30°04' W 093°20'0 0.0
2018-Apr-16 10:30N 30°04' W 093°20'0 0.0
2018-Apr-16 10:00N 30°04' W 093°20'0 0.0
2018-Apr-16 09:30N 30°04' W 093°20'0 0.0
2018-Apr-16 09:01N 30°04' W 093°20'0 0.0
2018-Apr-16 08:27N 30°04' W 093°20'0 0.1
2018-Apr-16 08:00N 30°04' W 093°20'0 0.1
2018-Apr-16 07:31N 30°04' W 093°20'0 0.0
2018-Apr-16 07:00N 30°04' W 093°20'0 0.0
2018-Apr-16 06:30N 30°04' W 093°20'0 0.0
2018-Apr-16 06:01N 30°04' W 093°20'0 0.0
2018-Apr-16 05:31N 30°04' W 093°20'0 0.0
2018-Apr-16 05:00N 30°04' W 093°20'0 0.0
2018-Apr-16 04:30N 30°04' W 093°20'0 0.0
2018-Apr-16 04:01N 30°04' W 093°20'0 0.1
2018-Apr-16 03:31N 30°04' W 093°20'0 0.1
2018-Apr-16 03:00N 30°04' W 093°20'0 0.0
2018-Apr-16 02:31N 30°04' W 093°20'0 0.0
2018-Apr-16 02:01N 30°04' W 093°20'0 0.0
2018-Apr-16 01:31N 30°04' W 093°20'0 0.0
2018-Apr-16 01:00N 30°04' W 093°20'0 0.1
2018-Apr-16 00:30N 30°04' W 093°20'0 0.1
2018-Apr-16 00:01N 30°04' W 093°20'0 0.0
2018-Apr-15 23:30N 30°04' W 093°20'0 0.0
2018-Apr-15 23:00N 30°04' W 093°20'0 0.1
2018-Apr-15 22:31N 30°04' W 093°20'0 0.1
2018-Apr-15 22:00N 30°04' W 093°20'0 0.1
2018-Apr-15 21:30N 30°04' W 093°20'0 0.0
2018-Apr-15 21:00N 30°04' W 093°20'0 0.0
2018-Apr-15 20:31N 30°04' W 093°20'0 0.0
2018-Apr-15 20:00N 30°04' W 093°20'0 0.0
2018-Apr-15 19:31N 30°04' W 093°20'0 0.0
2018-Apr-15 19:00N 30°04' W 093°20'0 0.0
2018-Apr-15 18:30N 30°04' W 093°20'0 0.0
2018-Apr-15 18:01N 30°04' W 093°20'0 0.0
2018-Apr-15 17:31N 30°04' W 093°20'0 0.0
2018-Apr-15 17:01N 30°04' W 093°20'0 0.0
2018-Apr-15 16:30N 30°04' W 093°20'0 0.0
2018-Apr-15 16:01N 30°04' W 093°20'0 0.0
2018-Apr-15 15:31N 30°04' W 093°20'0 0.0
2018-Apr-15 15:00N 30°04' W 093°20'0 0.0
2018-Apr-15 14:31N 30°04' W 093°20'0 0.0
2018-Apr-15 14:00N 30°04' W 093°20'0 0.0
2018-Apr-15 13:30N 30°04' W 093°20'0 0.0
2018-Apr-15 13:01N 30°04' W 093°20'0 0.0
2018-Apr-15 12:31N 30°04' W 093°20'0 0.0
2018-Apr-15 12:00N 30°04' W 093°20'0 0.0
2018-Apr-15 11:31N 30°04' W 093°20'0 0.0
2018-Apr-15 11:00N 30°04' W 093°20'0 0.0
2018-Apr-15 10:31N 30°04' W 093°20'0 0.0
2018-Apr-15 10:00N 30°04' W 093°20'0 0.0
2018-Apr-15 09:30N 30°04' W 093°20'0 0.0
2018-Apr-15 09:01N 30°04' W 093°20'0 0.0
2018-Apr-15 08:30N 30°04' W 093°20'0 0.0
2018-Apr-15 08:00N 30°04' W 093°20'0 0.0
2018-Apr-15 07:31N 30°04' W 093°20'0 0.0
2018-Apr-15 07:00N 30°04' W 093°20'0 0.0
2018-Apr-15 06:31N 30°04' W 093°20'0 0.1
2018-Apr-15 06:00N 30°04' W 093°20'0 0.0
2018-Apr-15 05:31N 30°04' W 093°20'0 0.1
2018-Apr-15 05:01N 30°04' W 093°20'0 0.0
2018-Apr-15 04:30N 30°04' W 093°20'0 0.0
2018-Apr-15 04:00N 30°04' W 093°20'0 0.0
2018-Apr-15 03:31N 30°04' W 093°20'0 0.0
2018-Apr-15 03:00N 30°04' W 093°20'0 0.0
2018-Apr-15 02:31N 30°04' W 093°20'0 0.0
2018-Apr-15 02:01N 30°04' W 093°20'0 0.0
2018-Apr-15 01:30N 30°04' W 093°20'0 0.1
2018-Apr-15 01:00N 30°04' W 093°20'0 0.1
2018-Apr-15 00:31N 30°04' W 093°20'0 0.0
2018-Apr-15 00:00N 30°04' W 093°20'0 0.0
2018-Apr-14 23:31N 30°04' W 093°20'0 0.0
2018-Apr-14 23:00N 30°04' W 093°20'0 0.0
2018-Apr-14 22:30N 30°04' W 093°20'0 0.0
2018-Apr-14 22:01N 30°04' W 093°20'0 0.0
2018-Apr-14 21:30N 30°04' W 093°20'0 0.0
2018-Apr-14 21:00N 30°04' W 093°20'0 0.0
2018-Apr-14 20:30N 30°04' W 093°20'0 0.0
2018-Apr-14 20:00N 30°04' W 093°20'0 0.0
2018-Apr-14 19:31N 30°04' W 093°20'0 0.0
2018-Apr-14 19:01N 30°05' W 093°20'0 0.0
2018-Apr-14 18:30N 30°05' W 093°20'0 0.0
2018-Apr-14 18:01N 30°05' W 093°20'0 0.0
2018-Apr-14 17:31N 30°05' W 093°20'0 0.0
2018-Apr-14 17:01N 30°05' W 093°20'0 0.0
2018-Apr-14 16:31N 30°05' W 093°20'0 0.0
2018-Apr-14 16:00N 30°05' W 093°20'0 0.1
2018-Apr-14 15:31N 30°04' W 093°20'0 0.1
2018-Apr-14 15:01N 30°05' W 093°20'0 0.1
2018-Apr-14 14:30N 30°05' W 093°20'0 0.0
2018-Apr-14 14:00N 30°05' W 093°20'0 0.1
2018-Apr-14 13:30N 30°05' W 093°20'0 0.1
2018-Apr-14 13:01N 30°05' W 093°20'0 0.6
2018-Apr-14 12:31N 30°04' W 093°20'0 0.1
2018-Apr-14 12:00N 30°04' W 093°20'0 0.0
2018-Apr-14 11:31N 30°04' W 093°20'0 0.0
2018-Apr-14 10:59N 30°04' W 093°20'0 0.0
2018-Apr-14 10:26N 30°04' W 093°20'0 0.0
2018-Apr-14 10:00N 30°04' W 093°20'0 0.0
2018-Apr-14 09:31N 30°04' W 093°20'0 0.0
2018-Apr-14 09:01N 30°04' W 093°20'0 0.1
2018-Apr-14 08:31N 30°04' W 093°20'0 0.1
2018-Apr-14 08:00N 30°04' W 093°20'0 0.0
2018-Apr-14 07:30N 30°04' W 093°20'0 0.0
2018-Apr-14 07:00N 30°04' W 093°20'0 0.0
2018-Apr-14 06:30N 30°04' W 093°20'0 0.0
2018-Apr-14 06:01N 30°04' W 093°20'0 0.0
2018-Apr-14 05:30N 30°04' W 093°20'0 0.0
2018-Apr-14 05:00N 30°04' W 093°20'0 0.0
2018-Apr-14 04:30N 30°04' W 093°20'0 0.0
2018-Apr-14 04:01N 30°04' W 093°20'0 0.0
2018-Apr-14 03:30N 30°04' W 093°20'0 0.0
2018-Apr-14 03:00N 30°04' W 093°20'0 0.0
2018-Apr-14 02:31N 30°04' W 093°20'0 0.0
2018-Apr-14 02:01N 30°04' W 093°20'0 0.0
2018-Apr-14 01:30N 30°04' W 093°20'0 0.0
2018-Apr-14 01:01N 30°04' W 093°20'0 0.0
2018-Apr-14 00:30N 30°04' W 093°20'0 0.0
2018-Apr-14 00:01N 30°04' W 093°20'0 0.0
2018-Apr-13 23:30N 30°04' W 093°20'0 0.0
2018-Apr-13 22:56N 30°04' W 093°20'0 0.0
2018-Apr-13 22:31N 30°04' W 093°20'0 0.0
2018-Apr-13 22:00N 30°04' W 093°20'0 0.0
2018-Apr-13 21:31N 30°04' W 093°20'0 0.5
2018-Apr-13 21:01N 30°04' W 093°19'0 0.2
2018-Apr-13 20:31N 30°04' W 093°20'0 0.4
2018-Apr-13 20:01N 30°04' W 093°20'0 0.0
2018-Apr-13 19:31N 30°04' W 093°20'0 0.0
2018-Apr-13 19:01N 30°04' W 093°20'0 0.0
2018-Apr-13 18:31N 30°04' W 093°20'0 0.0
2018-Apr-13 18:00N 30°04' W 093°20'0 0.0
2018-Apr-13 17:31N 30°04' W 093°20'0 0.0
2018-Apr-13 17:01N 30°04' W 093°20'0 0.0
2018-Apr-13 16:31N 30°04' W 093°20'0 0.0
2018-Apr-13 16:00N 30°04' W 093°20'0 0.0
2018-Apr-13 15:31N 30°04' W 093°20'0 0.1
2018-Apr-13 15:00N 30°04' W 093°20'0 0.1
2018-Apr-13 14:31N 30°04' W 093°20'0 0.0
2018-Apr-13 14:00N 30°04' W 093°20'0 0.0
2018-Apr-13 13:30N 30°04' W 093°20'0 0.0
2018-Apr-13 13:01N 30°04' W 093°20'0 0.0
2018-Apr-13 12:31N 30°04' W 093°20'0 0.0
2018-Apr-13 11:59N 30°04' W 093°20'0 0.0
2018-Apr-13 11:01N 30°04' W 093°20'0 0.0
2018-Apr-13 10:30N 30°04' W 093°20'0 0.0
2018-Apr-13 10:01N 30°04' W 093°20'0 0.0
2018-Apr-13 09:30N 30°04' W 093°20'0 0.0
2018-Apr-13 09:01N 30°04' W 093°20'0 0.0
2018-Apr-13 08:30N 30°04' W 093°20'0 0.0
2018-Apr-13 08:01N 30°04' W 093°20'0 0.0
2018-Apr-13 07:27N 30°04' W 093°20'0 0.0
2018-Apr-13 07:00N 30°04' W 093°20'0 0.0
2018-Apr-13 06:30N 30°04' W 093°20'0 0.0
2018-Apr-13 06:00N 30°04' W 093°20'0 0.0
2018-Apr-13 05:31N 30°04' W 093°20'0 0.0
2018-Apr-13 05:01N 30°04' W 093°20'0 0.0
2018-Apr-13 04:30N 30°04' W 093°20'0 0.0
2018-Apr-13 04:01N 30°04' W 093°20'0 0.0
2018-Apr-13 03:28N 30°04' W 093°20'0 0.1
2018-Apr-13 03:00N 30°04' W 093°20'0 0.1
2018-Apr-13 02:31N 30°04' W 093°20'0 0.0
2018-Apr-13 02:01N 30°04' W 093°20'0 0.0
2018-Apr-13 01:30N 30°04' W 093°20'0 0.0
2018-Apr-13 01:01N 30°04' W 093°20'0 0.0
2018-Apr-13 00:31N 30°04' W 093°20'0 0.0
2018-Apr-13 00:00N 30°04' W 093°20'0 0.0
2018-Apr-12 23:30N 30°04' W 093°20'0 0.0
2018-Apr-12 23:00N 30°04' W 093°20'0 0.1
2018-Apr-12 22:31N 30°04' W 093°20'0 0.1
2018-Apr-12 22:01N 30°04' W 093°20'0 0.0
2018-Apr-12 21:30N 30°04' W 093°20'0 0.0
2018-Apr-12 21:00N 30°04' W 093°20'0 0.0
2018-Apr-12 20:29N 30°04' W 093°20'0 0.0
2018-Apr-12 20:01N 30°04' W 093°20'0 0.0
2018-Apr-12 19:30N 30°04' W 093°20'0 0.0
2018-Apr-12 19:00N 30°04' W 093°20'2 3.2
2018-Apr-12 18:31N 30°04' W 093°21'0 0.0
2018-Apr-12 18:01N 30°04' W 093°21'0 0.0
2018-Apr-12 17:31N 30°04' W 093°21'2 3.6
2018-Apr-12 17:01N 30°05' W 093°20'0 0.7
2018-Apr-12 16:31N 30°04' W 093°20'1 1.8
2018-Apr-12 16:00N 30°04' W 093°21'1 1.5
2018-Apr-12 15:30N 30°04' W 093°21'0 0.0
2018-Apr-12 15:01N 30°04' W 093°21'2 3.6
2018-Apr-12 14:30N 30°05' W 093°20'0 0.2
2018-Apr-12 14:01N 30°05' W 093°20'0 0.6
2018-Apr-12 13:30N 30°05' W 093°20'0 0.3
2018-Apr-12 13:00N 30°05' W 093°20'1 1.4
2018-Apr-12 12:30N 30°04' W 093°20'0 0.0
2018-Apr-12 12:01N 30°04' W 093°20'0 0.0
2018-Apr-12 11:30N 30°04' W 093°20'0 0.0
2018-Apr-12 11:01N 30°04' W 093°20'0 0.0
2018-Apr-12 10:31N 30°04' W 093°20'0 0.0
2018-Apr-12 10:01N 30°04' W 093°20'0 0.0
2018-Apr-12 09:31N 30°04' W 093°20'0 0.0
2018-Apr-12 09:01N 30°04' W 093°20'0 0.0
2018-Apr-12 08:30N 30°04' W 093°20'0 0.0
2018-Apr-12 08:01N 30°04' W 093°20'0 0.0
2018-Apr-12 07:30N 30°04' W 093°20'0 0.0
2018-Apr-12 07:00N 30°04' W 093°20'0 0.0
2018-Apr-12 06:31N 30°04' W 093°20'0 0.0
2018-Apr-12 06:00N 30°04' W 093°20'0 0.0
2018-Apr-12 05:31N 30°04' W 093°20'0 0.0
2018-Apr-12 05:01N 30°04' W 093°20'0 0.0
2018-Apr-12 04:31N 30°04' W 093°20'0 0.0
2018-Apr-12 04:00N 30°04' W 093°20'0 0.0
2018-Apr-12 03:31N 30°04' W 093°20'0 0.0
2018-Apr-12 03:01N 30°04' W 093°20'0 0.0
2018-Apr-12 02:31N 30°04' W 093°20'0 0.0
2018-Apr-12 02:00N 30°04' W 093°20'0 0.0
2018-Apr-12 01:30N 30°04' W 093°20'0 0.0
2018-Apr-12 01:00N 30°04' W 093°20'0 0.0
2018-Apr-12 00:31N 30°04' W 093°20'0 0.0
2018-Apr-12 00:00N 30°04' W 093°20'0 0.0
2018-Apr-11 23:31N 30°04' W 093°20'0 0.0
2018-Apr-11 23:01N 30°04' W 093°20'0 0.0
2018-Apr-11 22:31N 30°04' W 093°20'0 0.0
2018-Apr-11 22:01N 30°04' W 093°20'0 0.0
2018-Apr-11 21:30N 30°04' W 093°20'0 0.0
2018-Apr-11 21:00N 30°04' W 093°20'0 0.0
2018-Apr-11 20:31N 30°04' W 093°20'0 0.0
2018-Apr-11 20:01N 30°04' W 093°20'0 0.0
2018-Apr-11 19:31N 30°04' W 093°20'0 0.0
2018-Apr-11 19:01N 30°04' W 093°20'0 0.0
2018-Apr-11 18:30N 30°04' W 093°20'0 0.0
2018-Apr-11 18:00N 30°04' W 093°20'0 0.0
2018-Apr-11 17:31N 30°04' W 093°20'1 2.0
2018-Apr-11 17:01N 30°04' W 093°21'0 1.0
2018-Apr-11 16:30N 30°05' W 093°20'1 1.3
2018-Apr-11 16:00N 30°04' W 093°20'0 0.2
2018-Apr-11 15:30N 30°04' W 093°20'0 0.2
2018-Apr-11 14:59N 30°04' W 093°20'0 0.0
2018-Apr-11 14:30N 30°04' W 093°20'1 1.3
2018-Apr-11 14:01N 30°05' W 093°19'1 1.2
2018-Apr-11 13:31N 30°05' W 093°20'0 0.0
2018-Apr-11 13:01N 30°05' W 093°20'1 1.1
2018-Apr-11 12:30N 30°05' W 093°20'1 2.8
2018-Apr-11 12:01N 30°04' W 093°21'0 0.0
2018-Apr-11 11:31N 30°04' W 093°21'0 0.3
2018-Apr-11 11:00N 30°04' W 093°21'1 2.9
2018-Apr-11 10:31N 30°05' W 093°20'0 0.1
2018-Apr-11 10:01N 30°05' W 093°20'0 0.0
2018-Apr-11 09:31N 30°05' W 093°20'0 0.0
2018-Apr-11 09:01N 30°05' W 093°20'0 0.0
2018-Apr-11 08:31N 30°05' W 093°20'0 0.0
2018-Apr-11 08:00N 30°05' W 093°20'0 0.0
2018-Apr-11 07:30N 30°05' W 093°20'0 0.0
2018-Apr-11 07:01N 30°05' W 093°20'0 0.0
2018-Apr-11 06:31N 30°05' W 093°20'0 0.0
2018-Apr-11 06:00N 30°05' W 093°20'0 0.0
2018-Apr-11 05:31N 30°05' W 093°20'0 0.0
2018-Apr-11 05:01N 30°05' W 093°20'0 0.0
2018-Apr-11 04:31N 30°05' W 093°20'0 0.0
2018-Apr-11 04:00N 30°05' W 093°20'0 0.0
2018-Apr-11 03:30N 30°05' W 093°20'0 0.0
2018-Apr-11 03:01N 30°05' W 093°20'0 0.0
2018-Apr-11 02:30N 30°05' W 093°20'0 0.0
2018-Apr-11 02:01N 30°05' W 093°20'0 0.0
2018-Apr-11 01:31N 30°05' W 093°20'0 0.0
2018-Apr-11 01:01N 30°05' W 093°20'1 2.5
2018-Apr-11 00:31N 30°06' W 093°19'3 5.4
2018-Apr-11 00:01N 30°04' W 093°21'0 0.0
2018-Apr-10 23:30N 30°04' W 093°21'0 0.0
2018-Apr-10 23:01N 30°04' W 093°21'0 0.0
2018-Apr-10 22:30N 30°04' W 093°21'0 0.0
2018-Apr-10 22:00N 30°04' W 093°21'2 3.3
2018-Apr-10 21:30N 30°05' W 093°20'0 0.0
2018-Apr-10 21:01N 30°05' W 093°20'0 0.0
2018-Apr-10 20:30N 30°05' W 093°20'0 0.0
2018-Apr-10 20:01N 30°05' W 093°20'0 0.0
2018-Apr-10 19:30N 30°05' W 093°20'  
Track history (hours):
 
Tides and Currents Weather Stations Pressure Air Temp Water Temp Dewpoint Dewpoint Depression Visibility Wind Speed Wind Dir Waves Ship Positions

God

Owner: Quality tug services LLC, broussard, LA. More information available from US FCC via Universal Licensing System and Coast Guard Vessel Documentation Center.

Last reported at 2018-Apr-20 19:04 UTC. Time now 2018-May-27 03:31 UTC.
Position N 29°56' W 093°09'.
Warning: this ship's position is 36 days out of date.

Length 18 m; draft 3 m.

Type: Towing. MMSI: 367603820.

Date/timePositionNaut miles runAvg speedWind from/ knotsBaromVisibWave heightAir tempDewpointWater temp
2018-Apr-20 19:04N 29°56' W 093°09'1 4.5
2018-Apr-20 18:55N 29°56' W 093°09'2 4.5
2018-Apr-20 18:30N 29°57' W 093°11'2 4.5
2018-Apr-20 18:01N 29°59' W 093°13'2 4.0
2018-Apr-20 17:31N 30°01' W 093°14'2 3.9
2018-Apr-20 17:01N 30°02' W 093°15'2 4.0
2018-Apr-20 16:30N 30°04' W 093°16'2 3.5
2018-Apr-20 16:00N 30°05' W 093°18'1 2.4
2018-Apr-20 15:30N 30°06' W 093°19'1 1.3
2018-Apr-20 15:00N 30°06' W 093°19'0 0.2
2018-Apr-20 14:28N 30°06' W 093°19'0 0.0
2018-Apr-20 13:58N 30°06' W 093°19'1 2.3
2018-Apr-20 13:30N 30°06' W 093°18'0 0.4
2018-Apr-20 13:00N 30°06' W 093°19'1 1.8
2018-Apr-20 12:30N 30°06' W 093°19'0 0.0
2018-Apr-20 12:01N 30°06' W 093°19'0 0.0
2018-Apr-20 11:30N 30°06' W 093°19'0 0.0
2018-Apr-20 11:01N 30°06' W 093°19'0 0.0
2018-Apr-20 10:31N 30°06' W 093°19'0 0.0
2018-Apr-20 10:01N 30°06' W 093°19'0 0.0
2018-Apr-20 09:31N 30°06' W 093°19'0 0.0
2018-Apr-20 09:01N 30°06' W 093°19'0 0.0
2018-Apr-20 08:30N 30°06' W 093°19'0 0.0
2018-Apr-20 08:00N 30°06' W 093°19'0 0.0
2018-Apr-20 07:30N 30°06' W 093°19'0 0.0
2018-Apr-20 07:00N 30°06' W 093°19'0 0.0
2018-Apr-20 06:31N 30°06' W 093°19'0 0.0
2018-Apr-20 06:00N 30°06' W 093°19'0 0.0
2018-Apr-20 05:30N 30°06' W 093°19'0 0.0
2018-Apr-20 05:00N 30°06' W 093°19'0 0.0
2018-Apr-20 04:30N 30°06' W 093°19'0 0.0
2018-Apr-20 04:01N 30°06' W 093°19'0 0.0
2018-Apr-20 03:31N 30°06' W 093°19'0 0.0
2018-Apr-20 03:00N 30°06' W 093°19'0 0.0
2018-Apr-20 02:30N 30°06' W 093°19'0 0.0
2018-Apr-20 02:01N 30°06' W 093°19'0 0.0
2018-Apr-20 01:29N 30°06' W 093°19'0 0.0
2018-Apr-20 01:00N 30°06' W 093°19'0 0.0
2018-Apr-20 00:31N 30°06' W 093°19'0 0.0
2018-Apr-20 00:00N 30°06' W 093°19'0 0.0
2018-Apr-19 23:31N 30°06' W 093°19'2 3.1
2018-Apr-19 23:01N 30°05' W 093°20'1 2.0
2018-Apr-19 22:29N 30°04' W 093°21'0 0.0
2018-Apr-19 21:56N 30°04' W 093°21'0 0.0
2018-Apr-19 21:30N 30°04' W 093°21'1 2.3
2018-Apr-19 21:00N 30°05' W 093°20'2 3.1
2018-Apr-19 20:30N 30°06' W 093°19'0 0.4
2018-Apr-19 20:01N 30°06' W 093°19'0 0.0
2018-Apr-19 19:31N 30°06' W 093°19'0 0.0
2018-Apr-19 19:01N 30°06' W 093°19'1 2.3
2018-Apr-19 18:31N 30°07' W 093°20'3 5.0
2018-Apr-19 18:01N 30°09' W 093°20'3 5.0
2018-Apr-19 17:30N 30°11' W 093°18'3 5.0
2018-Apr-19 16:58N 30°13' W 093°16'1 2.1
2018-Apr-19 16:31N 30°13' W 093°15'0 0.0
2018-Apr-19 16:00N 30°13' W 093°15'0 0.3
2018-Apr-19 15:30N 30°14' W 093°15'0 0.2
2018-Apr-19 15:01N 30°14' W 093°15'0 0.0
2018-Apr-19 14:31N 30°14' W 093°15'1 2.3
2018-Apr-19 14:00N 30°12' W 093°16'4 7.7
2018-Apr-19 13:31N 30°10' W 093°19'0 0.9
2018-Apr-19 13:01N 30°10' W 093°19'0 0.3
2018-Apr-19 12:31N 30°09' W 093°20'3 6.7
2018-Apr-19 12:00N 30°06' W 093°20'0 0.9
2018-Apr-19 11:30N 30°06' W 093°19'0 0.0
2018-Apr-19 11:01N 30°06' W 093°19'0 0.0
2018-Apr-19 10:30N 30°06' W 093°19'0 0.0
2018-Apr-19 10:00N 30°06' W 093°19'0 0.0
2018-Apr-19 09:31N 30°06' W 093°19'0 0.0
2018-Apr-19 09:00N 30°06' W 093°19'0 0.0
2018-Apr-19 08:30N 30°06' W 093°19'0 0.0
2018-Apr-19 08:00N 30°06' W 093°19'0 0.0
2018-Apr-19 07:31N 30°06' W 093°19'0 0.0
2018-Apr-19 07:01N 30°06' W 093°19'0 0.0
2018-Apr-19 06:30N 30°06' W 093°19'0 0.0
2018-Apr-19 06:01N 30°06' W 093°19'0 0.0
2018-Apr-19 05:30N 30°06' W 093°19'0 0.0
2018-Apr-19 05:00N 30°06' W 093°19'0 0.0
2018-Apr-19 04:31N 30°06' W 093°19'0 0.0
2018-Apr-19 04:01N 30°06' W 093°19'0 0.0
2018-Apr-19 03:30N 30°06' W 093°19'0 0.0
2018-Apr-19 03:01N 30°06' W 093°19'0 0.0
2018-Apr-19 02:31N 30°06' W 093°19'0 0.0
2018-Apr-19 02:00N 30°06' W 093°19'0 0.0
2018-Apr-19 01:30N 30°06' W 093°19'0 0.0
2018-Apr-19 01:00N 30°06' W 093°19'0 0.0
2018-Apr-19 00:31N 30°06' W 093°19'0 0.0
2018-Apr-19 00:00N 30°06' W 093°19'0 0.0
2018-Apr-18 23:30N 30°06' W 093°19'0 0.0
2018-Apr-18 23:00N 30°06' W 093°19'0 0.0
2018-Apr-18 22:30N 30°06' W 093°19'2 3.2
2018-Apr-18 22:01N 30°04' W 093°20'0 0.2
2018-Apr-18 21:30N 30°04' W 093°20'2 3.2
2018-Apr-18 20:59N 30°06' W 093°19'0 0.8
2018-Apr-18 20:30N 30°06' W 093°19'1 1.4
2018-Apr-18 20:01N 30°06' W 093°18'1 2.1
2018-Apr-18 19:30N 30°06' W 093°19'0 0.5
2018-Apr-18 19:01N 30°06' W 093°19'1 1.7
2018-Apr-18 18:30N 30°06' W 093°18'1 2.1
2018-Apr-18 18:00N 30°06' W 093°19'1 2.1
2018-Apr-18 17:30N 30°06' W 093°18'0 0.3
2018-Apr-18 17:00N 30°06' W 093°18'1 1.9
2018-Apr-18 16:31N 30°06' W 093°19'0 0.0
2018-Apr-18 16:01N 30°06' W 093°19'0 0.0
2018-Apr-18 15:30N 30°06' W 093°19'0 0.0
2018-Apr-18 15:01N 30°06' W 093°19'0 0.0
2018-Apr-18 14:30N 30°06' W 093°19'0 0.0
2018-Apr-18 14:00N 30°06' W 093°19'0 0.0
2018-Apr-18 13:30N 30°06' W 093°19'0 0.0
2018-Apr-18 13:00N 30°06' W 093°19'0 0.0
2018-Apr-18 12:31N 30°06' W 093°19'0 0.0
2018-Apr-18 12:00N 30°06' W 093°19'0 0.0
2018-Apr-18 11:30N 30°06' W 093°19'0 0.0
2018-Apr-18 11:01N 30°06' W 093°19'0 0.0
2018-Apr-18 10:31N 30°06' W 093°19'0 0.0
2018-Apr-18 10:01N 30°06' W 093°19'0 0.0
2018-Apr-18 09:31N 30°06' W 093°19'0 0.0
2018-Apr-18 09:00N 30°06' W 093°19'0 0.0
2018-Apr-18 08:31N 30°06' W 093°19'0 0.0
2018-Apr-18 08:00N 30°06' W 093°19'0 0.0
2018-Apr-18 07:31N 30°06' W 093°19'0 0.0
2018-Apr-18 07:00N 30°06' W 093°19'0 0.0
2018-Apr-18 06:30N 30°06' W 093°19'0 0.0
2018-Apr-18 06:01N 30°06' W 093°19'0 0.0
2018-Apr-18 05:31N 30°06' W 093°19'0 0.0
2018-Apr-18 05:00N 30°06' W 093°19'0 0.0
2018-Apr-18 04:30N 30°06' W 093°19'0 0.0
2018-Apr-18 04:01N 30°06' W 093°19'0 0.0
2018-Apr-18 03:30N 30°06' W 093°19'0 0.0
2018-Apr-18 03:01N 30°06' W 093°19'0 0.0
2018-Apr-18 02:30N 30°06' W 093°19'0 0.0
2018-Apr-18 02:00N 30°06' W 093°19'0 0.0
2018-Apr-18 01:31N 30°06' W 093°19'0 0.0
2018-Apr-18 01:01N 30°06' W 093°19'0 0.0
2018-Apr-18 00:31N 30°06' W 093°19'0 0.0
2018-Apr-18 00:01N 30°06' W 093°19'0 0.0
2018-Apr-17 23:31N 30°06' W 093°19'0 0.0
2018-Apr-17 23:01N 30°06' W 093°19'0 0.0
2018-Apr-17 22:31N 30°06' W 093°19'0 0.0
2018-Apr-17 22:01N 30°06' W 093°19'0 0.0
2018-Apr-17 21:31N 30°06' W 093°19'0 0.0
2018-Apr-17 21:01N 30°06' W 093°19'0 0.0
2018-Apr-17 20:30N 30°06' W 093°19'1 1.0
2018-Apr-17 20:01N 30°05' W 093°20'2 4.2
2018-Apr-17 19:31N 30°04' W 093°21'2 4.0
2018-Apr-17 19:01N 30°05' W 093°20'1 1.3
2018-Apr-17 18:31N 30°06' W 093°19'2 3.5
2018-Apr-17 18:01N 30°07' W 093°20'3 6.7
2018-Apr-17 17:31N 30°11' W 093°19'3 6.6
2018-Apr-17 17:00N 30°13' W 093°16'1 2.4
2018-Apr-17 16:31N 30°14' W 093°15'0 0.1
2018-Apr-17 16:01N 30°14' W 093°15'1 2.4
2018-Apr-17 15:31N 30°12' W 093°16'3 5.9
2018-Apr-17 15:00N 30°11' W 093°19'3 5.6
2018-Apr-17 14:31N 30°08' W 093°20'3 5.9
2018-Apr-17 14:00N 30°05' W 093°19'0 0.1
2018-Apr-17 13:31N 30°05' W 093°19'1 2.2
2018-Apr-17 13:00N 30°04' W 093°20'0 0.0
2018-Apr-17 12:30N 30°04' W 093°20'0 0.0
2018-Apr-17 12:01N 30°04' W 093°20'0 0.0
2018-Apr-17 11:30N 30°04' W 093°20'0 0.0
2018-Apr-17 11:01N 30°04' W 093°20'0 0.0
2018-Apr-17 10:31N 30°04' W 093°20'0 0.0
2018-Apr-17 10:00N 30°04' W 093°20'0 0.0
2018-Apr-17 09:31N 30°04' W 093°20'0 0.0
2018-Apr-17 09:01N 30°04' W 093°20'0 0.0
2018-Apr-17 08:30N 30°04' W 093°20'0 0.0
2018-Apr-17 08:00N 30°04' W 093°20'0 0.0
2018-Apr-17 07:31N 30°04' W 093°20'0 0.0
2018-Apr-17 07:00N 30°04' W 093°20'0 0.0
2018-Apr-17 06:31N 30°04' W 093°20'0 0.0
2018-Apr-17 06:01N 30°04' W 093°20'0 0.0
2018-Apr-17 05:31N 30°04' W 093°20'0 0.0
2018-Apr-17 04:59N 30°04' W 093°20'0 0.0
2018-Apr-17 04:31N 30°04' W 093°20'0 0.0
2018-Apr-17 04:00N 30°04' W 093°20'0 0.0
2018-Apr-17 03:31N 30°04' W 093°20'0 0.0
2018-Apr-17 03:00N 30°04' W 093°20'0 0.0
2018-Apr-17 02:31N 30°04' W 093°20'0 0.0
2018-Apr-17 02:01N 30°04' W 093°20'0 0.0
2018-Apr-17 01:31N 30°04' W 093°20'0 0.0
2018-Apr-17 01:00N 30°04' W 093°20'0 0.1
2018-Apr-17 00:30N 30°04' W 093°20'0 0.1
2018-Apr-17 00:00N 30°04' W 093°20'0 0.0
2018-Apr-16 23:30N 30°04' W 093°20'0 0.0
2018-Apr-16 23:00N 30°04' W 093°20'0 0.0
2018-Apr-16 22:30N 30°04' W 093°20'0 0.0
2018-Apr-16 22:00N 30°04' W 093°20'0 0.0
2018-Apr-16 21:31N 30°04' W 093°20'0 0.0
2018-Apr-16 21:00N 30°04' W 093°20'0 0.0
2018-Apr-16 20:30N 30°04' W 093°20'0 0.0
2018-Apr-16 20:00N 30°04' W 093°20'0 0.0
2018-Apr-16 19:31N 30°04' W 093°20'0 0.0
2018-Apr-16 19:00N 30°04' W 093°20'0 0.0
2018-Apr-16 18:31N 30°04' W 093°20'0 0.0
2018-Apr-16 18:00N 30°04' W 093°20'0 0.0
2018-Apr-16 17:30N 30°04' W 093°20'0 0.1
2018-Apr-16 17:01N 30°04' W 093°20'0 0.0
2018-Apr-16 16:31N 30°04' W 093°20'0 0.0
2018-Apr-16 16:00N 30°04' W 093°20'0 0.0
2018-Apr-16 15:31N 30°04' W 093°20'0 0.0
2018-Apr-16 15:01N 30°04' W 093°20'0 0.0
2018-Apr-16 14:30N 30°04' W 093°20'0 0.0
2018-Apr-16 14:01N 30°04' W 093°20'0 0.8
2018-Apr-16 13:31N 30°05' W 093°20'0 0.8
2018-Apr-16 13:01N 30°05' W 093°20'0 1.0
2018-Apr-16 12:30N 30°06' W 093°19'1 2.4
2018-Apr-16 11:59N 30°04' W 093°20'0 0.0
2018-Apr-16 11:30N 30°04' W 093°20'0 0.0
2018-Apr-16 11:00N 30°04' W 093°20'0 0.0
2018-Apr-16 10:30N 30°04' W 093°20'0 0.0
2018-Apr-16 10:00N 30°04' W 093°20'0 0.0
2018-Apr-16 09:30N 30°04' W 093°20'0 0.0
2018-Apr-16 09:01N 30°04' W 093°20'0 0.0
2018-Apr-16 08:27N 30°04' W 093°20'0 0.1
2018-Apr-16 08:00N 30°04' W 093°20'0 0.1
2018-Apr-16 07:31N 30°04' W 093°20'0 0.0
2018-Apr-16 07:00N 30°04' W 093°20'0 0.0
2018-Apr-16 06:30N 30°04' W 093°20'0 0.0
2018-Apr-16 06:01N 30°04' W 093°20'0 0.0
2018-Apr-16 05:31N 30°04' W 093°20'0 0.0
2018-Apr-16 05:00N 30°04' W 093°20'0 0.0
2018-Apr-16 04:30N 30°04' W 093°20'0 0.0
2018-Apr-16 04:01N 30°04' W 093°20'0 0.1
2018-Apr-16 03:31N 30°04' W 093°20'0 0.1
2018-Apr-16 03:00N 30°04' W 093°20'0 0.0
2018-Apr-16 02:31N 30°04' W 093°20'0 0.0
2018-Apr-16 02:01N 30°04' W 093°20'0 0.0
2018-Apr-16 01:31N 30°04' W 093°20'0 0.0
2018-Apr-16 01:00N 30°04' W 093°20'0 0.1
2018-Apr-16 00:30N 30°04' W 093°20'0 0.1
2018-Apr-16 00:01N 30°04' W 093°20'0 0.0
2018-Apr-15 23:30N 30°04' W 093°20'0 0.0
2018-Apr-15 23:00N 30°04' W 093°20'0 0.1
2018-Apr-15 22:31N 30°04' W 093°20'0 0.1
2018-Apr-15 22:00N 30°04' W 093°20'0 0.1
2018-Apr-15 21:30N 30°04' W 093°20'0 0.0
2018-Apr-15 21:00N 30°04' W 093°20'0 0.0
2018-Apr-15 20:31N 30°04' W 093°20'0 0.0
2018-Apr-15 20:00N 30°04' W 093°20'0 0.0
2018-Apr-15 19:31N 30°04' W 093°20'0 0.0
2018-Apr-15 19:00N 30°04' W 093°20'0 0.0
2018-Apr-15 18:30N 30°04' W 093°20'0 0.0
2018-Apr-15 18:01N 30°04' W 093°20'0 0.0
2018-Apr-15 17:31N 30°04' W 093°20'0 0.0
2018-Apr-15 17:01N 30°04' W 093°20'0 0.0
2018-Apr-15 16:30N 30°04' W 093°20'0 0.0
2018-Apr-15 16:01N 30°04' W 093°20'0 0.0
2018-Apr-15 15:31N 30°04' W 093°20'0 0.0
2018-Apr-15 15:00N 30°04' W 093°20'0 0.0
2018-Apr-15 14:31N 30°04' W 093°20'0 0.0
2018-Apr-15 14:00N 30°04' W 093°20'0 0.0
2018-Apr-15 13:30N 30°04' W 093°20'0 0.0
2018-Apr-15 13:01N 30°04' W 093°20'0 0.0
2018-Apr-15 12:31N 30°04' W 093°20'0 0.0
2018-Apr-15 12:00N 30°04' W 093°20'0 0.0
2018-Apr-15 11:31N 30°04' W 093°20'0 0.0
2018-Apr-15 11:00N 30°04' W 093°20'0 0.0
2018-Apr-15 10:31N 30°04' W 093°20'0 0.0
2018-Apr-15 10:00N 30°04' W 093°20'0 0.0
2018-Apr-15 09:30N 30°04' W 093°20'0 0.0
2018-Apr-15 09:01N 30°04' W 093°20'0 0.0
2018-Apr-15 08:30N 30°04' W 093°20'0 0.0
2018-Apr-15 08:00N 30°04' W 093°20'0 0.0
2018-Apr-15 07:31N 30°04' W 093°20'0 0.0
2018-Apr-15 07:00N 30°04' W 093°20'0 0.0
2018-Apr-15 06:31N 30°04' W 093°20'0 0.1
2018-Apr-15 06:00N 30°04' W 093°20'0 0.0
2018-Apr-15 05:31N 30°04' W 093°20'0 0.1
2018-Apr-15 05:01N 30°04' W 093°20'0 0.0
2018-Apr-15 04:30N 30°04' W 093°20'0 0.0
2018-Apr-15 04:00N 30°04' W 093°20'0 0.0
2018-Apr-15 03:31N 30°04' W 093°20'0 0.0
2018-Apr-15 03:00N 30°04' W 093°20'0 0.0
2018-Apr-15 02:31N 30°04' W 093°20'0 0.0
2018-Apr-15 02:01N 30°04' W 093°20'0 0.0
2018-Apr-15 01:30N 30°04' W 093°20'0 0.1
2018-Apr-15 01:00N 30°04' W 093°20'0 0.1
2018-Apr-15 00:31N 30°04' W 093°20'0 0.0
2018-Apr-15 00:00N 30°04' W 093°20'0 0.0
2018-Apr-14 23:31N 30°04' W 093°20'0 0.0
2018-Apr-14 23:00N 30°04' W 093°20'0 0.0
2018-Apr-14 22:30N 30°04' W 093°20'0 0.0
2018-Apr-14 22:01N 30°04' W 093°20'0 0.0
2018-Apr-14 21:30N 30°04' W 093°20'0 0.0
2018-Apr-14 21:00N 30°04' W 093°20'0 0.0
2018-Apr-14 20:30N 30°04' W 093°20'0 0.0
2018-Apr-14 20:00N 30°04' W 093°20'0 0.0
2018-Apr-14 19:31N 30°04' W 093°20'0 0.0
2018-Apr-14 19:01N 30°05' W 093°20'0 0.0
2018-Apr-14 18:30N 30°05' W 093°20'0 0.0
2018-Apr-14 18:01N 30°05' W 093°20'0 0.0
2018-Apr-14 17:31N 30°05' W 093°20'0 0.0
2018-Apr-14 17:01N 30°05' W 093°20'0 0.0
2018-Apr-14 16:31N 30°05' W 093°20'0 0.0
2018-Apr-14 16:00N 30°05' W 093°20'0 0.1
2018-Apr-14 15:31N 30°04' W 093°20'0 0.1
2018-Apr-14 15:01N 30°05' W 093°20'0 0.1
2018-Apr-14 14:30N 30°05' W 093°20'0 0.0
2018-Apr-14 14:00N 30°05' W 093°20'0 0.1
2018-Apr-14 13:30N 30°05' W 093°20'0 0.1
2018-Apr-14 13:01N 30°05' W 093°20'0 0.6
2018-Apr-14 12:31N 30°04' W 093°20'0 0.1
2018-Apr-14 12:00N 30°04' W 093°20'0 0.0
2018-Apr-14 11:31N 30°04' W 093°20'0 0.0
2018-Apr-14 10:59N 30°04' W 093°20'0 0.0
2018-Apr-14 10:26N 30°04' W 093°20'0 0.0
2018-Apr-14 10:00N 30°04' W 093°20'0 0.0
2018-Apr-14 09:31N 30°04' W 093°20'0 0.0
2018-Apr-14 09:01N 30°04' W 093°20'0 0.1
2018-Apr-14 08:31N 30°04' W 093°20'0 0.1
2018-Apr-14 08:00N 30°04' W 093°20'0 0.0
2018-Apr-14 07:30N 30°04' W 093°20'0 0.0
2018-Apr-14 07:00N 30°04' W 093°20'0 0.0
2018-Apr-14 06:30N 30°04' W 093°20'0 0.0
2018-Apr-14 06:01N 30°04' W 093°20'0 0.0
2018-Apr-14 05:30N 30°04' W 093°20'0 0.0
2018-Apr-14 05:00N 30°04' W 093°20'0 0.0
2018-Apr-14 04:30N 30°04' W 093°20'0 0.0
2018-Apr-14 04:01N 30°04' W 093°20'0 0.0
2018-Apr-14 03:30N 30°04' W 093°20'0 0.0
2018-Apr-14 03:00N 30°04' W 093°20'0 0.0
2018-Apr-14 02:31N 30°04' W 093°20'0 0.0
2018-Apr-14 02:01N 30°04' W 093°20'0 0.0
2018-Apr-14 01:30N 30°04' W 093°20'0 0.0
2018-Apr-14 01:01N 30°04' W 093°20'0 0.0
2018-Apr-14 00:30N 30°04' W 093°20'0 0.0
2018-Apr-14 00:01N 30°04' W 093°20'0 0.0
2018-Apr-13 23:30N 30°04' W 093°20'0 0.0
2018-Apr-13 22:56N 30°04' W 093°20'0 0.0
2018-Apr-13 22:31N 30°04' W 093°20'0 0.0
2018-Apr-13 22:00N 30°04' W 093°20'0 0.0
2018-Apr-13 21:31N 30°04' W 093°20'0 0.5
2018-Apr-13 21:01N 30°04' W 093°19'0 0.2
2018-Apr-13 20:31N 30°04' W 093°20'0 0.4
2018-Apr-13 20:01N 30°04' W 093°20'0 0.0
2018-Apr-13 19:31N 30°04' W 093°20'0 0.0
2018-Apr-13 19:01N 30°04' W 093°20'0 0.0
2018-Apr-13 18:31N 30°04' W 093°20'0 0.0
2018-Apr-13 18:00N 30°04' W 093°20'0 0.0
2018-Apr-13 17:31N 30°04' W 093°20'0 0.0
2018-Apr-13 17:01N 30°04' W 093°20'0 0.0
2018-Apr-13 16:31N 30°04' W 093°20'0 0.0
2018-Apr-13 16:00N 30°04' W 093°20'0 0.0
2018-Apr-13 15:31N 30°04' W 093°20'0 0.1
2018-Apr-13 15:00N 30°04' W 093°20'0 0.1
2018-Apr-13 14:31N 30°04' W 093°20'0 0.0
2018-Apr-13 14:00N 30°04' W 093°20'0 0.0
2018-Apr-13 13:30N 30°04' W 093°20'0 0.0
2018-Apr-13 13:01N 30°04' W 093°20'0 0.0
2018-Apr-13 12:31N 30°04' W 093°20'0 0.0
2018-Apr-13 11:59N 30°04' W 093°20'0 0.0
2018-Apr-13 11:01N 30°04' W 093°20'0 0.0
2018-Apr-13 10:30N 30°04' W 093°20'0 0.0
2018-Apr-13 10:01N 30°04' W 093°20'0 0.0
2018-Apr-13 09:30N 30°04' W 093°20'0 0.0
2018-Apr-13 09:01N 30°04' W 093°20'0 0.0
2018-Apr-13 08:30N 30°04' W 093°20'0 0.0
2018-Apr-13 08:01N 30°04' W 093°20'0 0.0
2018-Apr-13 07:27N 30°04' W 093°20'0 0.0
2018-Apr-13 07:00N 30°04' W 093°20'0 0.0
2018-Apr-13 06:30N 30°04' W 093°20'0 0.0
2018-Apr-13 06:00N 30°04' W 093°20'0 0.0
2018-Apr-13 05:31N 30°04' W 093°20'0 0.0
2018-Apr-13 05:01N 30°04' W 093°20'0 0.0
2018-Apr-13 04:30N 30°04' W 093°20'0 0.0
2018-Apr-13 04:01N 30°04' W 093°20'0 0.0
2018-Apr-13 03:28N 30°04' W 093°20'0 0.1
2018-Apr-13 03:00N 30°04' W 093°20'0 0.1
2018-Apr-13 02:31N 30°04' W 093°20'0 0.0
2018-Apr-13 02:01N 30°04' W 093°20'0 0.0
2018-Apr-13 01:30N 30°04' W 093°20'0 0.0
2018-Apr-13 01:01N 30°04' W 093°20'0 0.0
2018-Apr-13 00:31N 30°04' W 093°20'0 0.0
2018-Apr-13 00:00N 30°04' W 093°20'0 0.0
2018-Apr-12 23:30N 30°04' W 093°20'0 0.0
2018-Apr-12 23:00N 30°04' W 093°20'0 0.1
2018-Apr-12 22:31N 30°04' W 093°20'0 0.1
2018-Apr-12 22:01N 30°04' W 093°20'0 0.0
2018-Apr-12 21:30N 30°04' W 093°20'0 0.0
2018-Apr-12 21:00N 30°04' W 093°20'0 0.0
2018-Apr-12 20:29N 30°04' W 093°20'0 0.0
2018-Apr-12 20:01N 30°04' W 093°20'0 0.0
2018-Apr-12 19:30N 30°04' W 093°20'0 0.0
2018-Apr-12 19:00N 30°04' W 093°20'2 3.2
2018-Apr-12 18:31N 30°04' W 093°21'0 0.0
2018-Apr-12 18:01N 30°04' W 093°21'0 0.0
2018-Apr-12 17:31N 30°04' W 093°21'2 3.6
2018-Apr-12 17:01N 30°05' W 093°20'0 0.7
2018-Apr-12 16:31N 30°04' W 093°20'1 1.8
2018-Apr-12 16:00N 30°04' W 093°21'1 1.5
2018-Apr-12 15:30N 30°04' W 093°21'0 0.0
2018-Apr-12 15:01N 30°04' W 093°21'2 3.6
2018-Apr-12 14:30N 30°05' W 093°20'0 0.2
2018-Apr-12 14:01N 30°05' W 093°20'0 0.6
2018-Apr-12 13:30N 30°05' W 093°20'0 0.3
2018-Apr-12 13:00N 30°05' W 093°20'1 1.4
2018-Apr-12 12:30N 30°04' W 093°20'0 0.0
2018-Apr-12 12:01N 30°04' W 093°20'0 0.0
2018-Apr-12 11:30N 30°04' W 093°20'0 0.0
2018-Apr-12 11:01N 30°04' W 093°20'0 0.0
2018-Apr-12 10:31N 30°04' W 093°20'0 0.0
2018-Apr-12 10:01N 30°04' W 093°20'0 0.0
2018-Apr-12 09:31N 30°04' W 093°20'0 0.0
2018-Apr-12 09:01N 30°04' W 093°20'0 0.0
2018-Apr-12 08:30N 30°04' W 093°20'0 0.0
2018-Apr-12 08:01N 30°04' W 093°20'0 0.0
2018-Apr-12 07:30N 30°04' W 093°20'0 0.0
2018-Apr-12 07:00N 30°04' W 093°20'0 0.0
2018-Apr-12 06:31N 30°04' W 093°20'0 0.0
2018-Apr-12 06:00N 30°04' W 093°20'0 0.0
2018-Apr-12 05:31N 30°04' W 093°20'0 0.0
2018-Apr-12 05:01N 30°04' W 093°20'0 0.0
2018-Apr-12 04:31N 30°04' W 093°20'0 0.0
2018-Apr-12 04:00N 30°04' W 093°20'0 0.0
2018-Apr-12 03:31N 30°04' W 093°20'0 0.0
2018-Apr-12 03:01N 30°04' W 093°20'0 0.0
2018-Apr-12 02:31N 30°04' W 093°20'0 0.0
2018-Apr-12 02:00N 30°04' W 093°20'0 0.0
2018-Apr-12 01:30N 30°04' W 093°20'0 0.0
2018-Apr-12 01:00N 30°04' W 093°20'0 0.0
2018-Apr-12 00:31N 30°04' W 093°20'0 0.0
2018-Apr-12 00:00N 30°04' W 093°20'0 0.0
2018-Apr-11 23:31N 30°04' W 093°20'0 0.0
2018-Apr-11 23:01N 30°04' W 093°20'0 0.0
2018-Apr-11 22:31N 30°04' W 093°20'0 0.0
2018-Apr-11 22:01N 30°04' W 093°20'0 0.0
2018-Apr-11 21:30N 30°04' W 093°20'0 0.0
2018-Apr-11 21:00N 30°04' W 093°20'0 0.0
2018-Apr-11 20:31N 30°04' W 093°20'0 0.0
2018-Apr-11 20:01N 30°04' W 093°20'0 0.0
2018-Apr-11 19:31N 30°04' W 093°20'0 0.0
2018-Apr-11 19:01N 30°04' W 093°20'0 0.0
2018-Apr-11 18:30N 30°04' W 093°20'0 0.0
2018-Apr-11 18:00N 30°04' W 093°20'0 0.0
2018-Apr-11 17:31N 30°04' W 093°20'1 2.0
2018-Apr-11 17:01N 30°04' W 093°21'0 1.0
2018-Apr-11 16:30N 30°05' W 093°20'1 1.3
2018-Apr-11 16:00N 30°04' W 093°20'0 0.2
2018-Apr-11 15:30N 30°04' W 093°20'0 0.2
2018-Apr-11 14:59N 30°04' W 093°20'0 0.0
2018-Apr-11 14:30N 30°04' W 093°20'1 1.3
2018-Apr-11 14:01N 30°05' W 093°19'1 1.2
2018-Apr-11 13:31N 30°05' W 093°20'0 0.0
2018-Apr-11 13:01N 30°05' W 093°20'1 1.1
2018-Apr-11 12:30N 30°05' W 093°20'1 2.8
2018-Apr-11 12:01N 30°04' W 093°21'0 0.0
2018-Apr-11 11:31N 30°04' W 093°21'0 0.3
2018-Apr-11 11:00N 30°04' W 093°21'1 2.9
2018-Apr-11 10:31N 30°05' W 093°20'0 0.1
2018-Apr-11 10:01N 30°05' W 093°20'0 0.0
2018-Apr-11 09:31N 30°05' W 093°20'0 0.0
2018-Apr-11 09:01N 30°05' W 093°20'0 0.0
2018-Apr-11 08:31N 30°05' W 093°20'0 0.0
2018-Apr-11 08:00N 30°05' W 093°20'0 0.0
2018-Apr-11 07:30N 30°05' W 093°20'0 0.0
2018-Apr-11 07:01N 30°05' W 093°20'0 0.0
2018-Apr-11 06:31N 30°05' W 093°20'0 0.0
2018-Apr-11 06:00N 30°05' W 093°20'0 0.0
2018-Apr-11 05:31N 30°05' W 093°20'0 0.0
2018-Apr-11 05:01N 30°05' W 093°20'0 0.0
2018-Apr-11 04:31N 30°05' W 093°20'0 0.0
2018-Apr-11 04:00N 30°05' W 093°20'0 0.0
2018-Apr-11 03:30N 30°05' W 093°20'0 0.0
2018-Apr-11 03:01N 30°05' W 093°20'0 0.0
2018-Apr-11 02:30N 30°05' W 093°20'0 0.0
2018-Apr-11 02:01N 30°05' W 093°20'0 0.0
2018-Apr-11 01:31N 30°05' W 093°20'0 0.0
2018-Apr-11 01:01N 30°05' W 093°20'1 2.5
2018-Apr-11 00:31N 30°06' W 093°19'3 5.4
2018-Apr-11 00:01N 30°04' W 093°21'0 0.0
2018-Apr-10 23:30N 30°04' W 093°21'0 0.0
2018-Apr-10 23:01N 30°04' W 093°21'0 0.0
2018-Apr-10 22:30N 30°04' W 093°21'0 0.0
2018-Apr-10 22:00N 30°04' W 093°21'2 3.3
2018-Apr-10 21:30N 30°05' W 093°20'0 0.0
2018-Apr-10 21:01N 30°05' W 093°20'0 0.0
2018-Apr-10 20:30N 30°05' W 093°20'0 0.0
2018-Apr-10 20:01N 30°05' W 093°20'0 0.0
2018-Apr-10 19:30N 30°05' W 093°20'  

Dump ship's entire track history